sensor_id;sensor_type;location;lat;lon;timestamp;temperature;humidity
12977;DHT22;6553;48.412;9.514;2023-04-06T00:01:40;19.40;46.50
12977;DHT22;6553;48.412;9.514;2023-04-06T00:04:06;19.30;46.40
12977;DHT22;6553;48.412;9.514;2023-04-06T00:06:33;19.40;46.50
12977;DHT22;6553;48.412;9.514;2023-04-06T00:09:00;19.30;46.40
12977;DHT22;6553;48.412;9.514;2023-04-06T00:11:26;19.30;46.40
12977;DHT22;6553;48.412;9.514;2023-04-06T00:13:52;19.30;46.30
12977;DHT22;6553;48.412;9.514;2023-04-06T00:16:19;19.30;47.00
12977;DHT22;6553;48.412;9.514;2023-04-06T00:18:45;19.30;46.30
12977;DHT22;6553;48.412;9.514;2023-04-06T00:21:12;19.30;46.40
12977;DHT22;6553;48.412;9.514;2023-04-06T00:23:40;19.30;46.30
12977;DHT22;6553;48.412;9.514;2023-04-06T00:26:07;19.30;46.40
12977;DHT22;6553;48.412;9.514;2023-04-06T00:28:33;19.30;47.00
12977;DHT22;6553;48.412;9.514;2023-04-06T00:30:59;19.30;46.50
12977;DHT22;6553;48.412;9.514;2023-04-06T00:33:25;19.30;46.40
12977;DHT22;6553;48.412;9.514;2023-04-06T00:35:51;19.30;46.50
12977;DHT22;6553;48.412;9.514;2023-04-06T00:38:17;19.30;46.40
12977;DHT22;6553;48.412;9.514;2023-04-06T00:40:43;19.30;46.40
12977;DHT22;6553;48.412;9.514;2023-04-06T00:43:13;19.30;46.40
12977;DHT22;6553;48.412;9.514;2023-04-06T00:45:40;19.30;46.40
12977;DHT22;6553;48.412;9.514;2023-04-06T00:48:07;19.30;46.40
12977;DHT22;6553;48.412;9.514;2023-04-06T00:50:35;19.30;46.40
12977;DHT22;6553;48.412;9.514;2023-04-06T00:53:01;19.30;46.40
12977;DHT22;6553;48.412;9.514;2023-04-06T00:55:28;19.30;46.40
12977;DHT22;6553;48.412;9.514;2023-04-06T00:57:58;19.30;46.40
12977;DHT22;6553;48.412;9.514;2023-04-06T01:00:26;19.30;46.40
12977;DHT22;6553;48.412;9.514;2023-04-06T01:02:57;19.30;46.30
12977;DHT22;6553;48.412;9.514;2023-04-06T01:05:30;19.30;46.40
12977;DHT22;6553;48.412;9.514;2023-04-06T01:07:58;19.30;46.30
12977;DHT22;6553;48.412;9.514;2023-04-06T01:10:28;19.30;46.40
12977;DHT22;6553;48.412;9.514;2023-04-06T01:13:04;19.20;46.30
12977;DHT22;6553;48.412;9.514;2023-04-06T01:15:50;19.20;46.30
12977;DHT22;6553;48.412;9.514;2023-04-06T01:18:29;19.20;46.30
12977;DHT22;6553;48.412;9.514;2023-04-06T01:21:09;19.20;46.30
12977;DHT22;6553;48.412;9.514;2023-04-06T01:23:44;19.20;46.30
12977;DHT22;6553;48.412;9.514;2023-04-06T01:26:12;19.20;46.30
12977;DHT22;6553;48.412;9.514;2023-04-06T01:28:39;19.30;46.30
12977;DHT22;6553;48.412;9.514;2023-04-06T01:31:27;19.20;46.20
12977;DHT22;6553;48.412;9.514;2023-04-06T01:33:53;19.20;46.30
12977;DHT22;6553;48.412;9.514;2023-04-06T01:36:22;19.20;46.30
12977;DHT22;6553;48.412;9.514;2023-04-06T01:38:56;19.20;46.30
12977;DHT22;6553;48.412;9.514;2023-04-06T01:41:30;19.20;46.90
12977;DHT22;6553;48.412;9.514;2023-04-06T01:43:56;19.20;46.30
12977;DHT22;6553;48.412;9.514;2023-04-06T01:46:26;19.20;46.30
12977;DHT22;6553;48.412;9.514;2023-04-06T01:48:52;19.20;46.30
12977;DHT22;6553;48.412;9.514;2023-04-06T01:51:35;19.20;46.30
12977;DHT22;6553;48.412;9.514;2023-04-06T01:54:04;19.20;46.20
12977;DHT22;6553;48.412;9.514;2023-04-06T01:56:43;19.20;46.30
12977;DHT22;6553;48.412;9.514;2023-04-06T01:59:25;19.20;46.20
12977;DHT22;6553;48.412;9.514;2023-04-06T02:01:52;19.20;46.30
12977;DHT22;6553;48.412;9.514;2023-04-06T02:04:18;19.10;46.20
12977;DHT22;6553;48.412;9.514;2023-04-06T02:06:46;19.20;46.20
12977;DHT22;6553;48.412;9.514;2023-04-06T02:09:14;19.20;46.90
12977;DHT22;6553;48.412;9.514;2023-04-06T02:11:41;19.20;46.30
12977;DHT22;6553;48.412;9.514;2023-04-06T02:14:06;19.10;46.20
12977;DHT22;6553;48.412;9.514;2023-04-06T02:16:38;19.10;46.20
12977;DHT22;6553;48.412;9.514;2023-04-06T02:19:04;19.20;46.20
12977;DHT22;6553;48.412;9.514;2023-04-06T02:21:30;19.20;46.20
12977;DHT22;6553;48.412;9.514;2023-04-06T02:23:55;19.20;46.20
12977;DHT22;6553;48.412;9.514;2023-04-06T02:26:21;19.10;46.20
12977;DHT22;6553;48.412;9.514;2023-04-06T02:28:47;19.20;46.20
12977;DHT22;6553;48.412;9.514;2023-04-06T02:31:13;19.10;46.20
12977;DHT22;6553;48.412;9.514;2023-04-06T02:33:42;19.20;46.20
12977;DHT22;6553;48.412;9.514;2023-04-06T02:36:09;19.10;46.10
12977;DHT22;6553;48.412;9.514;2023-04-06T02:38:35;19.10;46.00
12977;DHT22;6553;48.412;9.514;2023-04-06T02:41:02;19.10;46.10
12977;DHT22;6553;48.412;9.514;2023-04-06T02:43:28;19.10;46.20
12977;DHT22;6553;48.412;9.514;2023-04-06T02:46:03;19.10;45.90
12977;DHT22;6553;48.412;9.514;2023-04-06T02:48:32;19.10;46.10
12977;DHT22;6553;48.412;9.514;2023-04-06T02:51:01;19.10;46.10
12977;DHT22;6553;48.412;9.514;2023-04-06T02:53:27;19.10;46.20
12977;DHT22;6553;48.412;9.514;2023-04-06T02:55:53;19.10;46.20
12977;DHT22;6553;48.412;9.514;2023-04-06T02:58:19;19.10;46.20
12977;DHT22;6553;48.412;9.514;2023-04-06T03:00:50;19.10;46.10
12977;DHT22;6553;48.412;9.514;2023-04-06T03:03:16;19.10;46.20
12977;DHT22;6553;48.412;9.514;2023-04-06T03:05:43;19.10;46.10
12977;DHT22;6553;48.412;9.514;2023-04-06T03:08:10;19.10;46.10
12977;DHT22;6553;48.412;9.514;2023-04-06T03:10:40;19.10;46.20
12977;DHT22;6553;48.412;9.514;2023-04-06T03:13:07;19.10;46.10
12977;DHT22;6553;48.412;9.514;2023-04-06T03:19:17;19.10;45.90
12977;DHT22;6553;48.412;9.514;2023-04-06T03:21:43;19.00;46.00
12977;DHT22;6553;48.412;9.514;2023-04-06T03:24:09;19.00;46.10
12977;DHT22;6553;48.412;9.514;2023-04-06T03:26:35;19.10;46.10
12977;DHT22;6553;48.412;9.514;2023-04-06T03:29:05;19.00;46.10
12977;DHT22;6553;48.412;9.514;2023-04-06T03:31:31;19.10;46.10
12977;DHT22;6553;48.412;9.514;2023-04-06T03:33:59;19.00;46.00
12977;DHT22;6553;48.412;9.514;2023-04-06T03:36:29;19.00;46.00
12977;DHT22;6553;48.412;9.514;2023-04-06T03:38:57;19.10;46.00
12977;DHT22;6553;48.412;9.514;2023-04-06T03:41:23;19.10;45.90
12977;DHT22;6553;48.412;9.514;2023-04-06T03:44:01;19.00;45.70
12977;DHT22;6553;48.412;9.514;2023-04-06T03:46:26;19.10;45.80
12977;DHT22;6553;48.412;9.514;2023-04-06T03:48:55;19.00;45.70
12977;DHT22;6553;48.412;9.514;2023-04-06T03:51:23;19.00;45.70
12977;DHT22;6553;48.412;9.514;2023-04-06T03:53:49;19.00;45.80
12977;DHT22;6553;48.412;9.514;2023-04-06T03:56:14;19.00;45.70
12977;DHT22;6553;48.412;9.514;2023-04-06T03:58:40;19.00;46.00
12977;DHT22;6553;48.412;9.514;2023-04-06T04:01:06;19.00;45.80
12977;DHT22;6553;48.412;9.514;2023-04-06T04:03:33;19.00;45.80
12977;DHT22;6553;48.412;9.514;2023-04-06T04:05:59;19.00;45.80
12977;DHT22;6553;48.412;9.514;2023-04-06T04:08:25;19.00;46.00
12977;DHT22;6553;48.412;9.514;2023-04-06T04:10:51;19.00;45.80
12977;DHT22;6553;48.412;9.514;2023-04-06T04:13:18;19.00;45.90
12977;DHT22;6553;48.412;9.514;2023-04-06T04:15:47;19.00;45.90
12977;DHT22;6553;48.412;9.514;2023-04-06T04:18:14;19.00;45.70
12977;DHT22;6553;48.412;9.514;2023-04-06T04:20:40;19.00;46.10
12977;DHT22;6553;48.412;9.514;2023-04-06T04:23:08;19.10;45.90
12977;DHT22;6553;48.412;9.514;2023-04-06T04:25:35;19.00;45.70
12977;DHT22;6553;48.412;9.514;2023-04-06T04:28:01;19.00;45.70
12977;DHT22;6553;48.412;9.514;2023-04-06T04:30:27;19.00;45.70
12977;DHT22;6553;48.412;9.514;2023-04-06T04:32:53;19.00;45.70
12977;DHT22;6553;48.412;9.514;2023-04-06T04:35:21;19.00;46.30
12977;DHT22;6553;48.412;9.514;2023-04-06T04:37:48;19.00;45.70
12977;DHT22;6553;48.412;9.514;2023-04-06T04:40:15;19.00;45.70
12977;DHT22;6553;48.412;9.514;2023-04-06T04:43:02;19.00;45.70
12977;DHT22;6553;48.412;9.514;2023-04-06T04:45:31;19.00;45.70
12977;DHT22;6553;48.412;9.514;2023-04-06T04:48:03;19.00;45.70
12977;DHT22;6553;48.412;9.514;2023-04-06T04:50:39;19.00;45.70
12977;DHT22;6553;48.412;9.514;2023-04-06T04:53:05;19.00;45.70
12977;DHT22;6553;48.412;9.514;2023-04-06T04:55:32;19.00;45.70
12977;DHT22;6553;48.412;9.514;2023-04-06T04:57:59;19.00;45.70
12977;DHT22;6553;48.412;9.514;2023-04-06T05:00:39;19.00;45.70
12977;DHT22;6553;48.412;9.514;2023-04-06T05:03:05;19.00;45.70
12977;DHT22;6553;48.412;9.514;2023-04-06T05:05:35;19.00;45.70
12977;DHT22;6553;48.412;9.514;2023-04-06T05:08:03;19.00;45.70
12977;DHT22;6553;48.412;9.514;2023-04-06T05:10:39;19.00;45.70
12977;DHT22;6553;48.412;9.514;2023-04-06T05:13:05;19.00;45.70
12977;DHT22;6553;48.412;9.514;2023-04-06T05:15:32;19.00;45.70
12977;DHT22;6553;48.412;9.514;2023-04-06T05:18:07;19.00;45.70
12977;DHT22;6553;48.412;9.514;2023-04-06T05:20:35;19.00;45.70
12977;DHT22;6553;48.412;9.514;2023-04-06T05:23:02;19.00;45.70
12977;DHT22;6553;48.412;9.514;2023-04-06T05:25:28;19.00;45.70
12977;DHT22;6553;48.412;9.514;2023-04-06T05:27:59;19.00;45.70
12977;DHT22;6553;48.412;9.514;2023-04-06T05:30:29;19.00;45.70
12977;DHT22;6553;48.412;9.514;2023-04-06T05:32:56;19.00;45.70
12977;DHT22;6553;48.412;9.514;2023-04-06T05:35:25;19.00;45.70
12977;DHT22;6553;48.412;9.514;2023-04-06T05:37:55;19.00;45.70
12977;DHT22;6553;48.412;9.514;2023-04-06T05:40:24;19.00;45.70
12977;DHT22;6553;48.412;9.514;2023-04-06T05:42:50;19.00;45.70
12977;DHT22;6553;48.412;9.514;2023-04-06T05:45:16;19.00;45.70
12977;DHT22;6553;48.412;9.514;2023-04-06T05:47:48;19.00;45.70
12977;DHT22;6553;48.412;9.514;2023-04-06T05:50:29;19.00;45.70
12977;DHT22;6553;48.412;9.514;2023-04-06T05:52:56;19.10;45.80
12977;DHT22;6553;48.412;9.514;2023-04-06T05:55:25;19.00;45.70
12977;DHT22;6553;48.412;9.514;2023-04-06T05:58:03;19.10;45.80
12977;DHT22;6553;48.412;9.514;2023-04-06T06:00:28;19.10;45.80
12977;DHT22;6553;48.412;9.514;2023-04-06T06:03:02;19.10;45.80
12977;DHT22;6553;48.412;9.514;2023-04-06T06:05:30;19.10;45.80
12977;DHT22;6553;48.412;9.514;2023-04-06T06:08:02;19.10;45.80
12977;DHT22;6553;48.412;9.514;2023-04-06T06:10:29;19.10;45.80
12977;DHT22;6553;48.412;9.514;2023-04-06T06:12:55;19.10;45.80
12977;DHT22;6553;48.412;9.514;2023-04-06T06:15:21;19.10;45.80
12977;DHT22;6553;48.412;9.514;2023-04-06T06:17:47;19.10;45.80
12977;DHT22;6553;48.412;9.514;2023-04-06T06:20:14;19.10;45.80
12977;DHT22;6553;48.412;9.514;2023-04-06T06:22:41;19.10;45.80
12977;DHT22;6553;48.412;9.514;2023-04-06T06:25:11;19.10;45.80
12977;DHT22;6553;48.412;9.514;2023-04-06T06:27:37;19.10;45.80
12977;DHT22;6553;48.412;9.514;2023-04-06T06:30:05;19.10;45.80
12977;DHT22;6553;48.412;9.514;2023-04-06T06:32:32;19.10;45.80
12977;DHT22;6553;48.412;9.514;2023-04-06T06:34:59;19.10;45.80
12977;DHT22;6553;48.412;9.514;2023-04-06T06:37:24;19.20;45.90
12977;DHT22;6553;48.412;9.514;2023-04-06T06:39:51;19.20;45.80
12977;DHT22;6553;48.412;9.514;2023-04-06T06:42:19;19.20;45.80
12977;DHT22;6553;48.412;9.514;2023-04-06T06:45:07;19.30;45.90
12977;DHT22;6553;48.412;9.514;2023-04-06T06:47:33;19.30;45.90
12977;DHT22;6553;48.412;9.514;2023-04-06T06:49:59;19.30;45.90
12977;DHT22;6553;48.412;9.514;2023-04-06T06:52:25;19.30;45.90
12977;DHT22;6553;48.412;9.514;2023-04-06T06:54:51;19.30;45.90
12977;DHT22;6553;48.412;9.514;2023-04-06T06:57:18;19.30;45.80
12977;DHT22;6553;48.412;9.514;2023-04-06T06:59:46;19.30;45.80
12977;DHT22;6553;48.412;9.514;2023-04-06T07:02:12;19.40;45.80
12977;DHT22;6553;48.412;9.514;2023-04-06T07:04:38;19.40;45.80
12977;DHT22;6553;48.412;9.514;2023-04-06T07:07:04;19.40;45.80
12977;DHT22;6553;48.412;9.514;2023-04-06T07:09:29;19.40;45.80
12977;DHT22;6553;48.412;9.514;2023-04-06T07:11:55;19.40;45.80
12977;DHT22;6553;48.412;9.514;2023-04-06T07:14:22;19.40;45.80
12977;DHT22;6553;48.412;9.514;2023-04-06T07:16:47;19.50;45.90
12977;DHT22;6553;48.412;9.514;2023-04-06T07:19:15;19.50;45.80
12977;DHT22;6553;48.412;9.514;2023-04-06T07:21:41;19.50;46.30
12977;DHT22;6553;48.412;9.514;2023-04-06T07:24:07;19.50;45.90
12977;DHT22;6553;48.412;9.514;2023-04-06T07:26:33;19.50;45.90
12977;DHT22;6553;48.412;9.514;2023-04-06T07:28:59;19.50;45.90
12977;DHT22;6553;48.412;9.514;2023-04-06T07:31:25;19.60;45.90
12977;DHT22;6553;48.412;9.514;2023-04-06T07:33:52;19.60;45.90
12977;DHT22;6553;48.412;9.514;2023-04-06T07:36:18;19.60;45.90
12977;DHT22;6553;48.412;9.514;2023-04-06T07:38:44;19.60;45.90
12977;DHT22;6553;48.412;9.514;2023-04-06T07:41:11;19.70;46.10
12977;DHT22;6553;48.412;9.514;2023-04-06T07:43:38;19.70;46.00
12977;DHT22;6553;48.412;9.514;2023-04-06T07:46:06;19.70;46.00
12977;DHT22;6553;48.412;9.514;2023-04-06T07:48:32;19.70;46.00
12977;DHT22;6553;48.412;9.514;2023-04-06T07:51:02;19.70;46.00
12977;DHT22;6553;48.412;9.514;2023-04-06T07:53:35;19.80;46.00
12977;DHT22;6553;48.412;9.514;2023-04-06T07:56:01;19.80;46.00
12977;DHT22;6553;48.412;9.514;2023-04-06T07:58:27;19.80;46.00
12977;DHT22;6553;48.412;9.514;2023-04-06T08:00:53;19.80;45.90
12977;DHT22;6553;48.412;9.514;2023-04-06T08:03:20;19.80;46.00
12977;DHT22;6553;48.412;9.514;2023-04-06T08:05:46;19.80;45.90
12977;DHT22;6553;48.412;9.514;2023-04-06T08:08:12;19.90;46.00
12977;DHT22;6553;48.412;9.514;2023-04-06T08:10:38;19.80;45.90
12977;DHT22;6553;48.412;9.514;2023-04-06T08:13:04;19.90;46.00
12977;DHT22;6553;48.412;9.514;2023-04-06T08:15:29;19.90;45.90
12977;DHT22;6553;48.412;9.514;2023-04-06T08:17:55;19.90;45.90
12977;DHT22;6553;48.412;9.514;2023-04-06T08:20:22;19.90;45.90
12977;DHT22;6553;48.412;9.514;2023-04-06T08:22:48;19.90;46.00
12977;DHT22;6553;48.412;9.514;2023-04-06T08:25:14;19.90;45.90
12977;DHT22;6553;48.412;9.514;2023-04-06T08:27:40;19.90;45.90
12977;DHT22;6553;48.412;9.514;2023-04-06T08:30:06;20.00;45.90
12977;DHT22;6553;48.412;9.514;2023-04-06T08:32:32;20.00;45.90
12977;DHT22;6553;48.412;9.514;2023-04-06T08:34:58;20.00;45.90
12977;DHT22;6553;48.412;9.514;2023-04-06T08:37:24;20.00;45.90
12977;DHT22;6553;48.412;9.514;2023-04-06T08:39:50;20.00;45.90
12977;DHT22;6553;48.412;9.514;2023-04-06T08:42:20;20.00;45.90
12977;DHT22;6553;48.412;9.514;2023-04-06T08:44:48;20.00;45.90
12977;DHT22;6553;48.412;9.514;2023-04-06T08:47:16;20.00;45.90
12977;DHT22;6553;48.412;9.514;2023-04-06T08:49:43;20.00;45.90
12977;DHT22;6553;48.412;9.514;2023-04-06T08:52:11;20.00;45.90
12977;DHT22;6553;48.412;9.514;2023-04-06T08:54:38;20.00;45.90
12977;DHT22;6553;48.412;9.514;2023-04-06T08:57:05;20.00;46.00
12977;DHT22;6553;48.412;9.514;2023-04-06T08:59:33;20.10;46.10
12977;DHT22;6553;48.412;9.514;2023-04-06T09:02:03;20.10;46.10
12977;DHT22;6553;48.412;9.514;2023-04-06T09:04:33;20.10;46.30
12977;DHT22;6553;48.412;9.514;2023-04-06T09:07:01;20.10;46.20
12977;DHT22;6553;48.412;9.514;2023-04-06T09:09:27;20.00;46.10
12977;DHT22;6553;48.412;9.514;2023-04-06T09:11:53;20.00;46.00
12977;DHT22;6553;48.412;9.514;2023-04-06T09:14:38;20.10;45.90
12977;DHT22;6553;48.412;9.514;2023-04-06T09:17:05;20.10;45.70
12977;DHT22;6553;48.412;9.514;2023-04-06T09:19:31;20.00;45.50
12977;DHT22;6553;48.412;9.514;2023-04-06T09:22:06;20.10;45.50
12977;DHT22;6553;48.412;9.514;2023-04-06T09:24:45;20.00;45.30
12977;DHT22;6553;48.412;9.514;2023-04-06T09:27:14;20.10;45.20
12977;DHT22;6553;48.412;9.514;2023-04-06T09:29:41;20.10;45.30
12977;DHT22;6553;48.412;9.514;2023-04-06T09:32:09;20.10;45.20
12977;DHT22;6553;48.412;9.514;2023-04-06T09:34:39;20.10;45.20
12977;DHT22;6553;48.412;9.514;2023-04-06T09:37:18;20.10;45.40
12977;DHT22;6553;48.412;9.514;2023-04-06T09:39:45;20.20;46.20
12977;DHT22;6553;48.412;9.514;2023-04-06T09:42:24;20.20;46.00
12977;DHT22;6553;48.412;9.514;2023-04-06T09:44:51;20.20;45.60
12977;DHT22;6553;48.412;9.514;2023-04-06T09:47:16;20.20;45.80
12977;DHT22;6553;48.412;9.514;2023-04-06T09:49:44;20.10;45.80
12977;DHT22;6553;48.412;9.514;2023-04-06T09:52:14;20.10;45.50
12977;DHT22;6553;48.412;9.514;2023-04-06T09:54:41;20.10;45.60
12977;DHT22;6553;48.412;9.514;2023-04-06T10:08:26;20.10;45.50
12977;DHT22;6553;48.412;9.514;2023-04-06T10:10:55;20.10;45.60
12977;DHT22;6553;48.412;9.514;2023-04-06T10:13:23;20.10;45.60
12977;DHT22;6553;48.412;9.514;2023-04-06T10:15:51;20.10;45.50
12977;DHT22;6553;48.412;9.514;2023-04-06T10:18:18;20.10;45.60
12977;DHT22;6553;48.412;9.514;2023-04-06T10:23:36;20.10;45.60
12977;DHT22;6553;48.412;9.514;2023-04-06T10:26:13;20.10;45.60
12977;DHT22;6553;48.412;9.514;2023-04-06T10:28:43;20.10;45.50
12977;DHT22;6553;48.412;9.514;2023-04-06T10:31:11;20.10;45.40
12977;DHT22;6553;48.412;9.514;2023-04-06T10:33:37;20.10;45.40
12977;DHT22;6553;48.412;9.514;2023-04-06T10:38:55;20.10;45.20
12977;DHT22;6553;48.412;9.514;2023-04-06T10:41:24;20.10;45.20
12977;DHT22;6553;48.412;9.514;2023-04-06T10:43:57;20.10;45.40
12977;DHT22;6553;48.412;9.514;2023-04-06T10:46:30;20.10;45.50
12977;DHT22;6553;48.412;9.514;2023-04-06T10:49:12;20.10;45.40
12977;DHT22;6553;48.412;9.514;2023-04-06T10:51:38;20.10;45.50
12977;DHT22;6553;48.412;9.514;2023-04-06T10:54:06;20.10;45.50
12977;DHT22;6553;48.412;9.514;2023-04-06T10:56:33;20.10;45.50
12977;DHT22;6553;48.412;9.514;2023-04-06T10:59:02;20.10;45.60
12977;DHT22;6553;48.412;9.514;2023-04-06T11:01:28;20.10;45.60
12977;DHT22;6553;48.412;9.514;2023-04-06T11:03:55;20.10;45.50
12977;DHT22;6553;48.412;9.514;2023-04-06T11:06:29;20.20;45.40
12977;DHT22;6553;48.412;9.514;2023-04-06T11:08:57;20.10;45.40
12977;DHT22;6553;48.412;9.514;2023-04-06T11:11:24;20.10;45.40
12977;DHT22;6553;48.412;9.514;2023-04-06T11:13:54;20.10;45.50
12977;DHT22;6553;48.412;9.514;2023-04-06T11:19:05;20.10;45.40
12977;DHT22;6553;48.412;9.514;2023-04-06T11:26:56;20.10;45.40
12977;DHT22;6553;48.412;9.514;2023-04-06T11:29:30;20.10;45.40
12977;DHT22;6553;48.412;9.514;2023-04-06T11:32:01;20.10;45.60
12977;DHT22;6553;48.412;9.514;2023-04-06T11:34:30;20.10;45.40
12977;DHT22;6553;48.412;9.514;2023-04-06T11:37:00;20.20;45.60
12977;DHT22;6553;48.412;9.514;2023-04-06T11:39:29;20.20;45.30
12977;DHT22;6553;48.412;9.514;2023-04-06T11:42:00;20.20;45.40
12977;DHT22;6553;48.412;9.514;2023-04-06T11:44:43;20.20;45.20
12977;DHT22;6553;48.412;9.514;2023-04-06T11:47:11;20.20;45.30
12977;DHT22;6553;48.412;9.514;2023-04-06T11:49:40;20.10;45.20
12977;DHT22;6553;48.412;9.514;2023-04-06T11:52:22;20.10;46.00
12977;DHT22;6553;48.412;9.514;2023-04-06T11:54:52;20.10;45.20
12977;DHT22;6553;48.412;9.514;2023-04-06T11:57:20;20.20;45.30
12977;DHT22;6553;48.412;9.514;2023-04-06T11:59:47;20.20;45.10
12977;DHT22;6553;48.412;9.514;2023-04-06T12:02:13;20.20;45.00
12977;DHT22;6553;48.412;9.514;2023-04-06T12:04:38;20.20;45.00
12977;DHT22;6553;48.412;9.514;2023-04-06T12:07:04;20.20;45.10
12977;DHT22;6553;48.412;9.514;2023-04-06T12:09:31;20.20;44.90
12977;DHT22;6553;48.412;9.514;2023-04-06T12:11:57;20.10;45.00
12977;DHT22;6553;48.412;9.514;2023-04-06T12:14:23;20.10;44.80
12977;DHT22;6553;48.412;9.514;2023-04-06T12:16:49;20.10;45.00
12977;DHT22;6553;48.412;9.514;2023-04-06T12:19:15;20.10;45.00
12977;DHT22;6553;48.412;9.514;2023-04-06T12:21:41;20.10;45.00
12977;DHT22;6553;48.412;9.514;2023-04-06T12:24:07;20.20;45.20
12977;DHT22;6553;48.412;9.514;2023-04-06T12:26:34;20.20;45.90
12977;DHT22;6553;48.412;9.514;2023-04-06T12:29:02;20.20;45.20
12977;DHT22;6553;48.412;9.514;2023-04-06T12:31:34;20.20;45.20
12977;DHT22;6553;48.412;9.514;2023-04-06T12:34:01;20.20;45.20
12977;DHT22;6553;48.412;9.514;2023-04-06T12:36:28;20.20;45.30
12977;DHT22;6553;48.412;9.514;2023-04-06T12:38:55;20.20;45.30
12977;DHT22;6553;48.412;9.514;2023-04-06T12:41:21;20.20;45.20
12977;DHT22;6553;48.412;9.514;2023-04-06T12:43:46;20.20;45.00
12977;DHT22;6553;48.412;9.514;2023-04-06T12:46:13;20.20;45.40
12977;DHT22;6553;48.412;9.514;2023-04-06T12:48:39;20.20;45.10
12977;DHT22;6553;48.412;9.514;2023-04-06T12:51:06;20.20;45.00
12977;DHT22;6553;48.412;9.514;2023-04-06T12:53:33;20.20;45.20
12977;DHT22;6553;48.412;9.514;2023-04-06T12:56:00;20.20;45.10
12977;DHT22;6553;48.412;9.514;2023-04-06T12:58:27;20.20;45.30
12977;DHT22;6553;48.412;9.514;2023-04-06T13:00:53;20.20;46.10
12977;DHT22;6553;48.412;9.514;2023-04-06T13:03:21;20.20;45.10
12977;DHT22;6553;48.412;9.514;2023-04-06T13:05:52;20.20;45.00
12977;DHT22;6553;48.412;9.514;2023-04-06T13:08:18;20.20;45.00
12977;DHT22;6553;48.412;9.514;2023-04-06T13:10:50;20.20;45.00
12977;DHT22;6553;48.412;9.514;2023-04-06T13:13:28;20.20;45.20
12977;DHT22;6553;48.412;9.514;2023-04-06T13:16:00;20.20;45.00
12977;DHT22;6553;48.412;9.514;2023-04-06T13:18:28;20.20;45.20
12977;DHT22;6553;48.412;9.514;2023-04-06T13:20:56;20.20;45.30
12977;DHT22;6553;48.412;9.514;2023-04-06T13:23:22;20.20;45.40
12977;DHT22;6553;48.412;9.514;2023-04-06T13:26:06;20.20;45.30
12977;DHT22;6553;48.412;9.514;2023-04-06T13:28:34;20.20;45.00
12977;DHT22;6553;48.412;9.514;2023-04-06T13:31:02;20.20;46.00
12977;DHT22;6553;48.412;9.514;2023-04-06T13:33:29;20.20;45.40
12977;DHT22;6553;48.412;9.514;2023-04-06T13:35:56;20.20;45.50
12977;DHT22;6553;48.412;9.514;2023-04-06T13:38:23;20.20;45.30
12977;DHT22;6553;48.412;9.514;2023-04-06T13:40:52;20.20;45.60
12977;DHT22;6553;48.412;9.514;2023-04-06T13:43:17;20.20;45.40
12977;DHT22;6553;48.412;9.514;2023-04-06T13:45:50;20.20;45.30
12977;DHT22;6553;48.412;9.514;2023-04-06T13:48:17;20.20;45.70
12977;DHT22;6553;48.412;9.514;2023-04-06T13:50:43;20.20;45.70
12977;DHT22;6553;48.412;9.514;2023-04-06T13:53:09;20.20;45.60
12977;DHT22;6553;48.412;9.514;2023-04-06T13:55:35;20.20;45.40
12977;DHT22;6553;48.412;9.514;2023-04-06T13:58:01;20.20;45.20
12977;DHT22;6553;48.412;9.514;2023-04-06T14:00:27;20.20;45.50
12977;DHT22;6553;48.412;9.514;2023-04-06T14:02:56;20.20;45.50
12977;DHT22;6553;48.412;9.514;2023-04-06T14:05:22;20.20;45.60
12977;DHT22;6553;48.412;9.514;2023-04-06T14:07:49;20.20;45.60
12977;DHT22;6553;48.412;9.514;2023-04-06T14:10:15;20.20;45.60
12977;DHT22;6553;48.412;9.514;2023-04-06T14:12:42;20.20;45.40
12977;DHT22;6553;48.412;9.514;2023-04-06T14:15:12;20.20;45.40
12977;DHT22;6553;48.412;9.514;2023-04-06T14:17:38;20.20;45.20
12977;DHT22;6553;48.412;9.514;2023-04-06T14:20:05;20.20;45.50
12977;DHT22;6553;48.412;9.514;2023-04-06T14:22:32;20.20;45.50
12977;DHT22;6553;48.412;9.514;2023-04-06T14:24:58;20.20;45.50
12977;DHT22;6553;48.412;9.514;2023-04-06T14:27:24;20.20;45.60
12977;DHT22;6553;48.412;9.514;2023-04-06T14:29:50;20.20;45.60
12977;DHT22;6553;48.412;9.514;2023-04-06T14:32:16;20.20;45.80
12977;DHT22;6553;48.412;9.514;2023-04-06T14:34:42;20.20;45.40
12977;DHT22;6553;48.412;9.514;2023-04-06T14:37:08;20.20;45.40
12977;DHT22;6553;48.412;9.514;2023-04-06T14:39:33;20.30;47.20
12977;DHT22;6553;48.412;9.514;2023-04-06T14:41:59;20.50;48.50
12977;DHT22;6553;48.412;9.514;2023-04-06T14:44:25;20.60;49.50
12977;DHT22;6553;48.412;9.514;2023-04-06T14:46:51;20.60;50.20
12977;DHT22;6553;48.412;9.514;2023-04-06T14:49:17;20.50;50.20
12977;DHT22;6553;48.412;9.514;2023-04-06T14:51:42;20.50;51.00
12977;DHT22;6553;48.412;9.514;2023-04-06T14:54:08;20.60;50.80
12977;DHT22;6553;48.412;9.514;2023-04-06T14:56:34;20.60;50.50
12977;DHT22;6553;48.412;9.514;2023-04-06T14:59:00;20.50;50.20
12977;DHT22;6553;48.412;9.514;2023-04-06T15:01:34;20.50;50.20
12977;DHT22;6553;48.412;9.514;2023-04-06T15:04:03;20.40;49.80
12977;DHT22;6553;48.412;9.514;2023-04-06T15:06:29;20.40;49.90
12977;DHT22;6553;48.412;9.514;2023-04-06T15:08:55;20.50;49.90
12977;DHT22;6553;48.412;9.514;2023-04-06T15:11:21;20.40;49.60
12977;DHT22;6553;48.412;9.514;2023-04-06T15:13:47;20.40;49.50
12977;DHT22;6553;48.412;9.514;2023-04-06T15:16:13;20.40;49.50
12977;DHT22;6553;48.412;9.514;2023-04-06T15:18:40;20.40;49.10
12977;DHT22;6553;48.412;9.514;2023-04-06T15:21:05;20.30;48.90
12977;DHT22;6553;48.412;9.514;2023-04-06T15:23:32;20.30;48.80
12977;DHT22;6553;48.412;9.514;2023-04-06T15:26:00;20.30;48.80
12977;DHT22;6553;48.412;9.514;2023-04-06T15:28:26;20.30;48.80
12977;DHT22;6553;48.412;9.514;2023-04-06T15:30:54;20.30;48.60
12977;DHT22;6553;48.412;9.514;2023-04-06T15:33:20;20.30;48.50
12977;DHT22;6553;48.412;9.514;2023-04-06T15:35:47;20.30;48.50
12977;DHT22;6553;48.412;9.514;2023-04-06T15:38:13;20.30;48.50
12977;DHT22;6553;48.412;9.514;2023-04-06T15:40:45;20.30;48.40
12977;DHT22;6553;48.412;9.514;2023-04-06T15:43:13;20.30;48.20
12977;DHT22;6553;48.412;9.514;2023-04-06T15:45:39;20.30;48.20
12977;DHT22;6553;48.412;9.514;2023-04-06T15:48:06;20.30;48.10
12977;DHT22;6553;48.412;9.514;2023-04-06T15:50:33;20.30;48.10
12977;DHT22;6553;48.412;9.514;2023-04-06T15:52:59;20.30;48.40
12977;DHT22;6553;48.412;9.514;2023-04-06T15:55:25;20.30;48.00
12977;DHT22;6553;48.412;9.514;2023-04-06T15:57:51;20.30;47.70
12977;DHT22;6553;48.412;9.514;2023-04-06T16:00:17;20.30;47.80
12977;DHT22;6553;48.412;9.514;2023-04-06T16:02:43;20.20;47.70
12977;DHT22;6553;48.412;9.514;2023-04-06T16:05:08;20.20;47.70
12977;DHT22;6553;48.412;9.514;2023-04-06T16:07:34;20.20;47.70
12977;DHT22;6553;48.412;9.514;2023-04-06T16:10:00;20.20;47.70
12977;DHT22;6553;48.412;9.514;2023-04-06T16:12:27;20.20;47.50
12977;DHT22;6553;48.412;9.514;2023-04-06T16:14:52;20.20;47.60
12977;DHT22;6553;48.412;9.514;2023-04-06T16:17:18;20.20;47.60
12977;DHT22;6553;48.412;9.514;2023-04-06T16:19:44;20.20;47.40